sensor_id;sensor_type;location;lat;lon;timestamp;temperature;humidity
64012;DHT22;50211;52.768;12.124;2022-12-18T00:02:03;-5.20;99.90
64012;DHT22;50211;52.768;12.124;2022-12-18T00:04:29;-5.20;99.90
64012;DHT22;50211;52.768;12.124;2022-12-18T00:06:54;-5.20;99.90
64012;DHT22;50211;52.768;12.124;2022-12-18T00:09:20;-5.20;99.90
64012;DHT22;50211;52.768;12.124;2022-12-18T00:11:46;-5.20;99.90
64012;DHT22;50211;52.768;12.124;2022-12-18T00:14:12;-5.30;99.90
64012;DHT22;50211;52.768;12.124;2022-12-18T00:16:39;-5.40;99.90
64012;DHT22;50211;52.768;12.124;2022-12-18T00:19:05;-5.40;99.90
64012;DHT22;50211;52.768;12.124;2022-12-18T00:21:32;-5.40;99.90
64012;DHT22;50211;52.768;12.124;2022-12-18T00:23:58;-5.30;99.90
64012;DHT22;50211;52.768;12.124;2022-12-18T00:26:27;-5.40;99.90
64012;DHT22;50211;52.768;12.124;2022-12-18T00:28:54;-5.40;99.90
64012;DHT22;50211;52.768;12.124;2022-12-18T00:31:22;-5.40;99.90
64012;DHT22;50211;52.768;12.124;2022-12-18T00:33:48;-5.50;99.90
64012;DHT22;50211;52.768;12.124;2022-12-18T00:36:17;-5.70;99.90
64012;DHT22;50211;52.768;12.124;2022-12-18T00:38:43;-5.80;99.90
64012;DHT22;50211;52.768;12.124;2022-12-18T00:41:10;-5.70;99.90
64012;DHT22;50211;52.768;12.124;2022-12-18T00:43:37;-5.70;99.90
64012;DHT22;50211;52.768;12.124;2022-12-18T00:46:03;-5.70;99.90
64012;DHT22;50211;52.768;12.124;2022-12-18T00:48:28;-5.70;99.90
64012;DHT22;50211;52.768;12.124;2022-12-18T00:50:54;-5.70;99.90
64012;DHT22;50211;52.768;12.124;2022-12-18T00:53:19;-5.70;99.90
64012;DHT22;50211;52.768;12.124;2022-12-18T00:55:45;-5.70;99.90
64012;DHT22;50211;52.768;12.124;2022-12-18T00:58:12;-5.70;99.90
64012;DHT22;50211;52.768;12.124;2022-12-18T01:00:38;-5.70;99.90
64012;DHT22;50211;52.768;12.124;2022-12-18T01:03:04;-5.70;99.90
64012;DHT22;50211;52.768;12.124;2022-12-18T01:05:30;-5.70;99.90
64012;DHT22;50211;52.768;12.124;2022-12-18T01:07:56;-5.70;99.90
64012;DHT22;50211;52.768;12.124;2022-12-18T01:10:23;-5.70;99.90
64012;DHT22;50211;52.768;12.124;2022-12-18T01:12:49;-5.80;99.90
64012;DHT22;50211;52.768;12.124;2022-12-18T01:15:15;-5.80;99.90
64012;DHT22;50211;52.768;12.124;2022-12-18T01:17:42;-5.90;99.90
64012;DHT22;50211;52.768;12.124;2022-12-18T01:20:09;-5.80;99.90
64012;DHT22;50211;52.768;12.124;2022-12-18T01:22:35;-5.80;99.90
64012;DHT22;50211;52.768;12.124;2022-12-18T01:25:01;-5.90;99.90
64012;DHT22;50211;52.768;12.124;2022-12-18T01:27:27;-5.80;99.90
64012;DHT22;50211;52.768;12.124;2022-12-18T01:29:52;-5.90;99.90
64012;DHT22;50211;52.768;12.124;2022-12-18T01:32:18;-6.00;99.90
64012;DHT22;50211;52.768;12.124;2022-12-18T01:34:43;-5.90;99.90
64012;DHT22;50211;52.768;12.124;2022-12-18T01:37:09;-5.90;99.90
64012;DHT22;50211;52.768;12.124;2022-12-18T01:39:35;-5.90;99.90
64012;DHT22;50211;52.768;12.124;2022-12-18T01:42:15;-5.90;99.90
64012;DHT22;50211;52.768;12.124;2022-12-18T01:47:53;-5.90;99.90
64012;DHT22;50211;52.768;12.124;2022-12-18T01:50:27;-5.80;99.90
64012;DHT22;50211;52.768;12.124;2022-12-18T01:52:55;-6.00;99.90
64012;DHT22;50211;52.768;12.124;2022-12-18T01:55:28;-6.10;99.90
64012;DHT22;50211;52.768;12.124;2022-12-18T01:57:56;-6.10;99.90
64012;DHT22;50211;52.768;12.124;2022-12-18T02:00:24;-6.20;99.90
64012;DHT22;50211;52.768;12.124;2022-12-18T02:02:50;-6.10;99.90
64012;DHT22;50211;52.768;12.124;2022-12-18T02:05:19;-6.10;99.90
64012;DHT22;50211;52.768;12.124;2022-12-18T02:16:24;-6.70;99.90
64012;DHT22;50211;52.768;12.124;2022-12-18T02:18:57;-6.90;99.90
64012;DHT22;50211;52.768;12.124;2022-12-18T02:21:49;-7.00;99.90
64012;DHT22;50211;52.768;12.124;2022-12-18T02:24:20;-7.20;99.90
64012;DHT22;50211;52.768;12.124;2022-12-18T02:26:50;-7.30;99.90
64012;DHT22;50211;52.768;12.124;2022-12-18T02:29:29;-7.40;99.90
64012;DHT22;50211;52.768;12.124;2022-12-18T02:32:00;-7.50;99.90
64012;DHT22;50211;52.768;12.124;2022-12-18T02:34:30;-7.50;99.90
64012;DHT22;50211;52.768;12.124;2022-12-18T02:36:58;-7.40;99.90
64012;DHT22;50211;52.768;12.124;2022-12-18T02:39:26;-7.40;99.90
64012;DHT22;50211;52.768;12.124;2022-12-18T02:41:54;-7.50;99.90
64012;DHT22;50211;52.768;12.124;2022-12-18T02:44:19;-7.50;99.90
64012;DHT22;50211;52.768;12.124;2022-12-18T02:46:46;-7.50;99.90
64012;DHT22;50211;52.768;12.124;2022-12-18T02:52:07;-7.50;99.90
64012;DHT22;50211;52.768;12.124;2022-12-18T02:54:45;-7.50;99.90
64012;DHT22;50211;52.768;12.124;2022-12-18T02:57:25;-7.60;99.90
64012;DHT22;50211;52.768;12.124;2022-12-18T03:00:29;-7.80;99.90
64012;DHT22;50211;52.768;12.124;2022-12-18T03:03:19;-7.90;99.90
64012;DHT22;50211;52.768;12.124;2022-12-18T03:06:32;-7.80;99.90
64012;DHT22;50211;52.768;12.124;2022-12-18T03:08:56;-7.70;99.90
64012;DHT22;50211;52.768;12.124;2022-12-18T03:11:24;-7.70;99.90
64012;DHT22;50211;52.768;12.124;2022-12-18T03:14:11;-7.70;99.90
64012;DHT22;50211;52.768;12.124;2022-12-18T03:16:41;-7.70;99.90
64012;DHT22;50211;52.768;12.124;2022-12-18T03:19:14;-7.70;99.90
64012;DHT22;50211;52.768;12.124;2022-12-18T03:21:44;-7.70;99.90
64012;DHT22;50211;52.768;12.124;2022-12-18T03:24:11;-7.70;99.90
64012;DHT22;50211;52.768;12.124;2022-12-18T03:26:40;-7.70;99.90
64012;DHT22;50211;52.768;12.124;2022-12-18T03:29:10;-7.80;99.90
64012;DHT22;50211;52.768;12.124;2022-12-18T03:31:40;-8.00;99.90
64012;DHT22;50211;52.768;12.124;2022-12-18T03:34:14;-8.00;99.90
64012;DHT22;50211;52.768;12.124;2022-12-18T03:36:40;-7.90;99.90
64012;DHT22;50211;52.768;12.124;2022-12-18T03:39:06;-7.90;99.90
64012;DHT22;50211;52.768;12.124;2022-12-18T03:41:36;-7.80;99.90
64012;DHT22;50211;52.768;12.124;2022-12-18T03:46:58;-7.80;99.90
64012;DHT22;50211;52.768;12.124;2022-12-18T03:52:39;-7.90;99.90
64012;DHT22;50211;52.768;12.124;2022-12-18T03:55:07;-7.90;99.90
64012;DHT22;50211;52.768;12.124;2022-12-18T03:57:33;-8.00;99.90
64012;DHT22;50211;52.768;12.124;2022-12-18T04:00:14;-8.20;99.90
64012;DHT22;50211;52.768;12.124;2022-12-18T04:02:46;-8.30;99.90
64012;DHT22;50211;52.768;12.124;2022-12-18T04:05:13;-8.30;99.90
64012;DHT22;50211;52.768;12.124;2022-12-18T04:07:40;-8.30;99.90
64012;DHT22;50211;52.768;12.124;2022-12-18T04:10:11;-8.20;99.90
64012;DHT22;50211;52.768;12.124;2022-12-18T04:12:37;-8.20;99.90
64012;DHT22;50211;52.768;12.124;2022-12-18T04:15:03;-8.10;99.90
64012;DHT22;50211;52.768;12.124;2022-12-18T04:17:28;-8.00;99.90
64012;DHT22;50211;52.768;12.124;2022-12-18T04:19:54;-7.90;99.90
64012;DHT22;50211;52.768;12.124;2022-12-18T04:22:19;-7.80;99.90
64012;DHT22;50211;52.768;12.124;2022-12-18T04:24:45;-7.80;99.90
64012;DHT22;50211;52.768;12.124;2022-12-18T04:27:11;-7.80;99.90
64012;DHT22;50211;52.768;12.124;2022-12-18T04:29:36;-7.70;99.90
64012;DHT22;50211;52.768;12.124;2022-12-18T04:32:02;-7.70;99.90
64012;DHT22;50211;52.768;12.124;2022-12-18T04:34:27;-7.70;99.90
64012;DHT22;50211;52.768;12.124;2022-12-18T04:36:53;-7.70;99.90
64012;DHT22;50211;52.768;12.124;2022-12-18T04:39:18;-7.70;99.90
64012;DHT22;50211;52.768;12.124;2022-12-18T04:41:44;-7.70;99.90
64012;DHT22;50211;52.768;12.124;2022-12-18T04:44:10;-7.70;99.90
64012;DHT22;50211;52.768;12.124;2022-12-18T04:46:36;-7.70;99.90
64012;DHT22;50211;52.768;12.124;2022-12-18T04:49:01;-7.70;99.90
64012;DHT22;50211;52.768;12.124;2022-12-18T04:51:27;-7.70;99.90
64012;DHT22;50211;52.768;12.124;2022-12-18T04:53:53;-7.60;99.90
64012;DHT22;50211;52.768;12.124;2022-12-18T04:56:19;-7.60;99.90
64012;DHT22;50211;52.768;12.124;2022-12-18T04:58:44;-7.60;99.90
64012;DHT22;50211;52.768;12.124;2022-12-18T05:01:12;-7.70;99.90
64012;DHT22;50211;52.768;12.124;2022-12-18T05:03:38;-7.70;99.90
64012;DHT22;50211;52.768;12.124;2022-12-18T05:06:04;-7.70;99.90
64012;DHT22;50211;52.768;12.124;2022-12-18T05:08:30;-7.60;99.90
64012;DHT22;50211;52.768;12.124;2022-12-18T05:13:29;-7.60;99.90
64012;DHT22;50211;52.768;12.124;2022-12-18T05:15:55;-7.60;99.90
64012;DHT22;50211;52.768;12.124;2022-12-18T05:18:22;-7.60;99.90
64012;DHT22;50211;52.768;12.124;2022-12-18T05:20:49;-7.60;99.90
64012;DHT22;50211;52.768;12.124;2022-12-18T05:23:15;-7.70;99.90
64012;DHT22;50211;52.768;12.124;2022-12-18T05:25:40;-7.70;99.90
64012;DHT22;50211;52.768;12.124;2022-12-18T05:28:06;-7.70;99.90
64012;DHT22;50211;52.768;12.124;2022-12-18T05:30:31;-7.70;99.90
64012;DHT22;50211;52.768;12.124;2022-12-18T05:32:57;-7.70;99.90
64012;DHT22;50211;52.768;12.124;2022-12-18T05:35:22;-7.70;99.90
64012;DHT22;50211;52.768;12.124;2022-12-18T05:37:48;-7.70;99.90
64012;DHT22;50211;52.768;12.124;2022-12-18T05:40:13;-7.70;99.90
64012;DHT22;50211;52.768;12.124;2022-12-18T05:42:39;-7.60;99.90
64012;DHT22;50211;52.768;12.124;2022-12-18T05:45:05;-7.60;99.90
64012;DHT22;50211;52.768;12.124;2022-12-18T05:47:31;-7.60;99.90
64012;DHT22;50211;52.768;12.124;2022-12-18T05:49:56;-7.50;99.90
64012;DHT22;50211;52.768;12.124;2022-12-18T05:52:22;-7.50;99.90
64012;DHT22;50211;52.768;12.124;2022-12-18T05:54:48;-7.40;99.90
64012;DHT22;50211;52.768;12.124;2022-12-18T05:57:14;-7.40;99.90
64012;DHT22;50211;52.768;12.124;2022-12-18T05:59:39;-7.40;99.90
64012;DHT22;50211;52.768;12.124;2022-12-18T06:02:05;-7.30;99.90
64012;DHT22;50211;52.768;12.124;2022-12-18T06:04:30;-7.40;99.90
64012;DHT22;50211;52.768;12.124;2022-12-18T06:06:56;-7.40;99.90
64012;DHT22;50211;52.768;12.124;2022-12-18T06:09:22;-7.40;99.90
64012;DHT22;50211;52.768;12.124;2022-12-18T06:11:47;-7.30;99.90
64012;DHT22;50211;52.768;12.124;2022-12-18T06:14:13;-7.30;99.90
64012;DHT22;50211;52.768;12.124;2022-12-18T06:16:38;-7.20;99.90
64012;DHT22;50211;52.768;12.124;2022-12-18T06:19:05;-7.20;99.90
64012;DHT22;50211;52.768;12.124;2022-12-18T06:21:31;-7.20;99.90
64012;DHT22;50211;52.768;12.124;2022-12-18T06:23:57;-7.20;99.90
64012;DHT22;50211;52.768;12.124;2022-12-18T06:26:23;-7.10;99.90
64012;DHT22;50211;52.768;12.124;2022-12-18T06:28:48;-7.10;99.90
64012;DHT22;50211;52.768;12.124;2022-12-18T06:31:14;-7.10;99.90
64012;DHT22;50211;52.768;12.124;2022-12-18T06:33:39;-7.10;99.90
64012;DHT22;50211;52.768;12.124;2022-12-18T06:36:07;-7.10;99.90
64012;DHT22;50211;52.768;12.124;2022-12-18T06:38:35;-7.00;99.90
64012;DHT22;50211;52.768;12.124;2022-12-18T06:41:00;-6.90;99.90
64012;DHT22;50211;52.768;12.124;2022-12-18T06:43:26;-6.90;99.90
64012;DHT22;50211;52.768;12.124;2022-12-18T06:45:57;-6.80;99.90
64012;DHT22;50211;52.768;12.124;2022-12-18T06:48:22;-6.80;99.90
64012;DHT22;50211;52.768;12.124;2022-12-18T06:50:48;-6.70;99.90
64012;DHT22;50211;52.768;12.124;2022-12-18T06:53:13;-6.80;99.90
64012;DHT22;50211;52.768;12.124;2022-12-18T06:55:39;-6.70;99.90
64012;DHT22;50211;52.768;12.124;2022-12-18T06:58:04;-6.60;99.90
64012;DHT22;50211;52.768;12.124;2022-12-18T07:00:30;-6.70;99.90
64012;DHT22;50211;52.768;12.124;2022-12-18T07:02:56;-6.60;99.90
64012;DHT22;50211;52.768;12.124;2022-12-18T07:05:21;-6.50;99.90
64012;DHT22;50211;52.768;12.124;2022-12-18T07:07:47;-6.50;99.90
64012;DHT22;50211;52.768;12.124;2022-12-18T07:10:12;-6.50;99.90
64012;DHT22;50211;52.768;12.124;2022-12-18T07:12:38;-6.50;99.90
64012;DHT22;50211;52.768;12.124;2022-12-18T07:15:03;-6.50;99.90
64012;DHT22;50211;52.768;12.124;2022-12-18T07:17:29;-6.40;99.90
64012;DHT22;50211;52.768;12.124;2022-12-18T07:19:55;-6.30;99.90
64012;DHT22;50211;52.768;12.124;2022-12-18T07:22:21;-6.30;99.90
64012;DHT22;50211;52.768;12.124;2022-12-18T07:24:49;-6.30;99.90
64012;DHT22;50211;52.768;12.124;2022-12-18T07:27:15;-6.30;99.90
64012;DHT22;50211;52.768;12.124;2022-12-18T07:29:40;-6.30;99.90
64012;DHT22;50211;52.768;12.124;2022-12-18T07:32:06;-6.20;99.90
64012;DHT22;50211;52.768;12.124;2022-12-18T07:34:32;-6.20;99.90
64012;DHT22;50211;52.768;12.124;2022-12-18T07:36:58;-6.20;99.90
64012;DHT22;50211;52.768;12.124;2022-12-18T07:39:23;-6.10;99.90
64012;DHT22;50211;52.768;12.124;2022-12-18T07:41:49;-6.10;99.90
64012;DHT22;50211;52.768;12.124;2022-12-18T07:44:34;-6.10;99.90
64012;DHT22;50211;52.768;12.124;2022-12-18T07:47:00;-6.10;99.90
64012;DHT22;50211;52.768;12.124;2022-12-18T07:49:25;-6.00;99.90
64012;DHT22;50211;52.768;12.124;2022-12-18T07:51:51;-6.00;99.90
64012;DHT22;50211;52.768;12.124;2022-12-18T07:54:16;-6.00;99.90
64012;DHT22;50211;52.768;12.124;2022-12-18T07:56:42;-6.00;99.90
64012;DHT22;50211;52.768;12.124;2022-12-18T07:59:07;-5.90;99.90
64012;DHT22;50211;52.768;12.124;2022-12-18T08:01:33;-5.90;99.90
64012;DHT22;50211;52.768;12.124;2022-12-18T08:03:59;-5.80;99.90
64012;DHT22;50211;52.768;12.124;2022-12-18T08:06:25;-5.80;99.90
64012;DHT22;50211;52.768;12.124;2022-12-18T08:08:52;-5.70;99.90
64012;DHT22;50211;52.768;12.124;2022-12-18T08:11:18;-5.70;99.90
64012;DHT22;50211;52.768;12.124;2022-12-18T08:13:44;-5.70;99.90
64012;DHT22;50211;52.768;12.124;2022-12-18T08:16:09;-5.60;99.90
64012;DHT22;50211;52.768;12.124;2022-12-18T08:18:36;-5.60;99.90
64012;DHT22;50211;52.768;12.124;2022-12-18T08:21:17;-5.50;99.90
64012;DHT22;50211;52.768;12.124;2022-12-18T08:23:43;-5.50;99.90
64012;DHT22;50211;52.768;12.124;2022-12-18T08:26:10;-5.50;99.90
64012;DHT22;50211;52.768;12.124;2022-12-18T08:28:36;-5.40;99.90
64012;DHT22;50211;52.768;12.124;2022-12-18T08:31:01;-5.40;99.90
64012;DHT22;50211;52.768;12.124;2022-12-18T08:33:27;-5.30;99.90
64012;DHT22;50211;52.768;12.124;2022-12-18T08:35:52;-5.30;99.90
64012;DHT22;50211;52.768;12.124;2022-12-18T08:38:18;-5.20;99.90
64012;DHT22;50211;52.768;12.124;2022-12-18T08:40:44;-5.20;99.90
64012;DHT22;50211;52.768;12.124;2022-12-18T08:43:10;-5.10;99.90
64012;DHT22;50211;52.768;12.124;2022-12-18T08:45:55;-5.10;99.90
64012;DHT22;50211;52.768;12.124;2022-12-18T08:48:20;-5.00;99.90
64012;DHT22;50211;52.768;12.124;2022-12-18T08:50:57;-5.00;99.90
64012;DHT22;50211;52.768;12.124;2022-12-18T08:53:26;-5.00;99.90
64012;DHT22;50211;52.768;12.124;2022-12-18T08:55:52;-4.90;99.90
64012;DHT22;50211;52.768;12.124;2022-12-18T08:58:18;-4.90;99.90
64012;DHT22;50211;52.768;12.124;2022-12-18T09:00:44;-4.80;99.90
64012;DHT22;50211;52.768;12.124;2022-12-18T09:03:14;-4.80;99.90
64012;DHT22;50211;52.768;12.124;2022-12-18T09:05:40;-4.80;99.90
64012;DHT22;50211;52.768;12.124;2022-12-18T09:08:05;-4.70;99.90
64012;DHT22;50211;52.768;12.124;2022-12-18T09:10:31;-4.60;99.90
64012;DHT22;50211;52.768;12.124;2022-12-18T09:12:57;-4.60;99.90
64012;DHT22;50211;52.768;12.124;2022-12-18T09:15:22;-4.50;99.90
64012;DHT22;50211;52.768;12.124;2022-12-18T09:17:48;-4.60;99.90
64012;DHT22;50211;52.768;12.124;2022-12-18T09:20:18;-4.50;99.90
64012;DHT22;50211;52.768;12.124;2022-12-18T09:22:43;-4.50;99.90
64012;DHT22;50211;52.768;12.124;2022-12-18T09:25:09;-4.50;99.90
64012;DHT22;50211;52.768;12.124;2022-12-18T09:27:35;-4.40;99.90
64012;DHT22;50211;52.768;12.124;2022-12-18T09:30:01;-4.50;99.90
64012;DHT22;50211;52.768;12.124;2022-12-18T09:32:27;-4.40;99.90
64012;DHT22;50211;52.768;12.124;2022-12-18T09:34:52;-4.30;99.90
64012;DHT22;50211;52.768;12.124;2022-12-18T09:37:18;-4.20;99.90
64012;DHT22;50211;52.768;12.124;2022-12-18T09:39:43;-4.20;99.90
64012;DHT22;50211;52.768;12.124;2022-12-18T09:42:17;-4.20;99.90
64012;DHT22;50211;52.768;12.124;2022-12-18T09:44:50;-4.20;99.90
64012;DHT22;50211;52.768;12.124;2022-12-18T09:47:27;-4.10;99.90
64012;DHT22;50211;52.768;12.124;2022-12-18T09:49:58;-4.10;99.90
64012;DHT22;50211;52.768;12.124;2022-12-18T09:52:33;-4.10;99.90
64012;DHT22;50211;52.768;12.124;2022-12-18T09:57:40;-4.00;99.90
64012;DHT22;50211;52.768;12.124;2022-12-18T10:00:19;-3.90;99.90
64012;DHT22;50211;52.768;12.124;2022-12-18T10:02:46;-4.10;99.90
64012;DHT22;50211;52.768;12.124;2022-12-18T10:05:15;-4.00;99.90
64012;DHT22;50211;52.768;12.124;2022-12-18T10:07:57;-4.00;99.90
64012;DHT22;50211;52.768;12.124;2022-12-18T10:15:38;-3.90;99.90
64012;DHT22;50211;52.768;12.124;2022-12-18T10:18:33;-3.90;99.90
64012;DHT22;50211;52.768;12.124;2022-12-18T10:21:18;-3.80;99.90
64012;DHT22;50211;52.768;12.124;2022-12-18T10:26:41;-3.80;99.90
64012;DHT22;50211;52.768;12.124;2022-12-18T10:29:16;-3.80;99.90
64012;DHT22;50211;52.768;12.124;2022-12-18T10:31:42;-3.80;99.90
64012;DHT22;50211;52.768;12.124;2022-12-18T10:34:14;-3.80;99.90
64012;DHT22;50211;52.768;12.124;2022-12-18T10:36:40;-3.80;99.90
64012;DHT22;50211;52.768;12.124;2022-12-18T10:39:21;-3.70;99.90
64012;DHT22;50211;52.768;12.124;2022-12-18T10:42:10;-3.80;99.90
64012;DHT22;50211;52.768;12.124;2022-12-18T10:44:36;-3.80;99.90
64012;DHT22;50211;52.768;12.124;2022-12-18T10:47:10;-3.70;99.90
64012;DHT22;50211;52.768;12.124;2022-12-18T10:49:36;-3.60;99.90
64012;DHT22;50211;52.768;12.124;2022-12-18T10:52:17;-3.60;99.90
64012;DHT22;50211;52.768;12.124;2022-12-18T10:54:48;-3.60;99.90
64012;DHT22;50211;52.768;12.124;2022-12-18T10:57:16;-3.60;99.90
64012;DHT22;50211;52.768;12.124;2022-12-18T10:59:53;-3.40;99.90
64012;DHT22;50211;52.768;12.124;2022-12-18T11:02:37;-3.30;99.90
64012;DHT22;50211;52.768;12.124;2022-12-18T11:05:23;-3.20;99.90
64012;DHT22;50211;52.768;12.124;2022-12-18T11:07:50;-3.00;99.90
64012;DHT22;50211;52.768;12.124;2022-12-18T11:10:20;-3.00;99.90
64012;DHT22;50211;52.768;12.124;2022-12-18T11:12:47;-3.00;99.90
64012;DHT22;50211;52.768;12.124;2022-12-18T11:15:21;-3.10;99.90
64012;DHT22;50211;52.768;12.124;2022-12-18T11:17:50;-3.20;99.90
64012;DHT22;50211;52.768;12.124;2022-12-18T11:22:57;-2.90;99.90
64012;DHT22;50211;52.768;12.124;2022-12-18T11:25:24;-2.80;99.90
64012;DHT22;50211;52.768;12.124;2022-12-18T11:36:36;-2.50;99.90
64012;DHT22;50211;52.768;12.124;2022-12-18T11:41:55;-2.40;99.90
64012;DHT22;50211;52.768;12.124;2022-12-18T11:47:59;-2.50;99.90
64012;DHT22;50211;52.768;12.124;2022-12-18T11:50:53;-2.60;99.90
64012;DHT22;50211;52.768;12.124;2022-12-18T11:53:19;-2.60;99.90
64012;DHT22;50211;52.768;12.124;2022-12-18T11:56:27;-2.50;99.90
64012;DHT22;50211;52.768;12.124;2022-12-18T12:01:50;-2.70;99.90
64012;DHT22;50211;52.768;12.124;2022-12-18T12:04:41;-2.70;99.90
64012;DHT22;50211;52.768;12.124;2022-12-18T12:09:58;-2.30;99.90
64012;DHT22;50211;52.768;12.124;2022-12-18T12:15:50;-2.10;99.90
64012;DHT22;50211;52.768;12.124;2022-12-18T12:21:10;-2.30;99.90
64012;DHT22;50211;52.768;12.124;2022-12-18T12:23:47;-2.30;99.90
64012;DHT22;50211;52.768;12.124;2022-12-18T12:26:35;-2.20;99.90
64012;DHT22;50211;52.768;12.124;2022-12-18T12:39:25;-2.60;99.90
64012;DHT22;50211;52.768;12.124;2022-12-18T12:41:55;-2.60;99.90
64012;DHT22;50211;52.768;12.124;2022-12-18T12:44:44;-2.70;99.90
64012;DHT22;50211;52.768;12.124;2022-12-18T12:47:18;-2.70;99.90
64012;DHT22;50211;52.768;12.124;2022-12-18T12:49:45;-2.90;99.90
64012;DHT22;50211;52.768;12.124;2022-12-18T12:52:17;-2.90;99.90
64012;DHT22;50211;52.768;12.124;2022-12-18T12:54:47;-2.90;99.90
64012;DHT22;50211;52.768;12.124;2022-12-18T12:57:23;-2.90;99.90
64012;DHT22;50211;52.768;12.124;2022-12-18T13:00:00;-2.80;99.90
64012;DHT22;50211;52.768;12.124;2022-12-18T13:02:43;-2.80;99.90
64012;DHT22;50211;52.768;12.124;2022-12-18T13:08:10;-3.00;99.90
64012;DHT22;50211;52.768;12.124;2022-12-18T13:10:41;-3.00;99.90
64012;DHT22;50211;52.768;12.124;2022-12-18T13:15:37;-3.10;99.90
64012;DHT22;50211;52.768;12.124;2022-12-18T13:20:34;-3.00;99.90
64012;DHT22;50211;52.768;12.124;2022-12-18T13:23:00;-2.90;99.90
64012;DHT22;50211;52.768;12.124;2022-12-18T13:25:32;-3.10;99.90
64012;DHT22;50211;52.768;12.124;2022-12-18T13:38:37;-3.30;99.90
64012;DHT22;50211;52.768;12.124;2022-12-18T13:41:22;-3.40;99.90
64012;DHT22;50211;52.768;12.124;2022-12-18T13:43:50;-3.40;99.90
64012;DHT22;50211;52.768;12.124;2022-12-18T13:49:03;-3.40;99.90
64012;DHT22;50211;52.768;12.124;2022-12-18T13:51:32;-3.40;99.90
64012;DHT22;50211;52.768;12.124;2022-12-18T13:54:00;-3.40;99.90
64012;DHT22;50211;52.768;12.124;2022-12-18T13:56:32;-3.50;99.90
64012;DHT22;50211;52.768;12.124;2022-12-18T13:59:20;-3.50;99.90
64012;DHT22;50211;52.768;12.124;2022-12-18T14:01:53;-3.50;99.90
64012;DHT22;50211;52.768;12.124;2022-12-18T14:04:26;-3.60;99.90
64012;DHT22;50211;52.768;12.124;2022-12-18T14:07:12;-3.60;99.90
64012;DHT22;50211;52.768;12.124;2022-12-18T14:09:53;-3.60;99.90
64012;DHT22;50211;52.768;12.124;2022-12-18T14:12:25;-3.60;99.90
64012;DHT22;50211;52.768;12.124;2022-12-18T14:17:55;-3.70;99.90
64012;DHT22;50211;52.768;12.124;2022-12-18T14:20:22;-3.70;99.90
64012;DHT22;50211;52.768;12.124;2022-12-18T14:22:49;-3.60;99.90
64012;DHT22;50211;52.768;12.124;2022-12-18T14:25:20;-3.70;99.90
64012;DHT22;50211;52.768;12.124;2022-12-18T14:27:51;-3.70;99.90
64012;DHT22;50211;52.768;12.124;2022-12-18T14:33:11;-3.80;99.90
64012;DHT22;50211;52.768;12.124;2022-12-18T14:35:39;-3.80;99.90
64012;DHT22;50211;52.768;12.124;2022-12-18T14:38:39;-4.00;99.90
64012;DHT22;50211;52.768;12.124;2022-12-18T14:41:12;-4.00;99.90
64012;DHT22;50211;52.768;12.124;2022-12-18T14:43:40;-4.10;99.90
64012;DHT22;50211;52.768;12.124;2022-12-18T14:49:05;-4.00;99.90
64012;DHT22;50211;52.768;12.124;2022-12-18T14:51:48;-4.10;99.90
64012;DHT22;50211;52.768;12.124;2022-12-18T14:54:16;-4.10;99.90
64012;DHT22;50211;52.768;12.124;2022-12-18T14:56:48;-4.10;99.90
64012;DHT22;50211;52.768;12.124;2022-12-18T14:59:16;-4.10;99.90
64012;DHT22;50211;52.768;12.124;2022-12-18T15:04:36;-4.10;99.90
64012;DHT22;50211;52.768;12.124;2022-12-18T15:07:09;-4.10;99.90
64012;DHT22;50211;52.768;12.124;2022-12-18T15:09:37;-4.10;99.90
64012;DHT22;50211;52.768;12.124;2022-12-18T15:12:03;-4.10;99.90
64012;DHT22;50211;52.768;12.124;2022-12-18T15:17:06;-4.00;99.90
64012;DHT22;50211;52.768;12.124;2022-12-18T15:19:43;-4.10;99.90
64012;DHT22;50211;52.768;12.124;2022-12-18T15:24:45;-4.10;99.90
64012;DHT22;50211;52.768;12.124;2022-12-18T15:27:33;-4.20;99.90
64012;DHT22;50211;52.768;12.124;2022-12-18T15:32:42;-4.30;99.90
64012;DHT22;50211;52.768;12.124;2022-12-18T15:37:39;-4.30;99.90
64012;DHT22;50211;52.768;12.124;2022-12-18T15:40:05;-4.30;99.90
64012;DHT22;50211;52.768;12.124;2022-12-18T15:42:31;-4.30;99.90
64012;DHT22;50211;52.768;12.124;2022-12-18T15:45:15;-4.30;99.90
64012;DHT22;50211;52.768;12.124;2022-12-18T15:47:41;-4.30;99.90
64012;DHT22;50211;52.768;12.124;2022-12-18T15:50:09;-4.30;99.90
64012;DHT22;50211;52.768;12.124;2022-12-18T15:52:43;-4.30;99.90
64012;DHT22;50211;52.768;12.124;2022-12-18T15:55:13;-4.30;99.90
64012;DHT22;50211;52.768;12.124;2022-12-18T15:57:57;-4.30;99.90
64012;DHT22;50211;52.768;12.124;2022-12-18T16:00:23;-4.30;99.90
64012;DHT22;50211;52.768;12.124;2022-12-18T16:02:48;-4.30;99.90
64012;DHT22;50211;52.768;12.124;2022-12-18T16:05:15;-4.30;99.90
64012;DHT22;50211;52.768;12.124;2022-12-18T16:07:42;-4.30;99.90
64012;DHT22;50211;52.768;12.124;2022-12-18T16:10:08;-4.30;99.90
64012;DHT22;50211;52.768;12.124;2022-12-18T16:12:33;-4.30;99.90
64012;DHT22;50211;52.768;12.124;2022-12-18T16:14:59;-4.30;99.90
64012;DHT22;50211;52.768;12.124;2022-12-18T16:17:25;-4.30;99.90
64012;DHT22;50211;52.768;12.124;2022-12-18T16:19:50;-4.30;99.90
64012;DHT22;50211;52.768;12.124;2022-12-18T16:22:28;-4.30;99.90
64012;DHT22;50211;52.768;12.124;2022-12-18T16:24:55;-4.30;99.90
64012;DHT22;50211;52.768;12.124;2022-12-18T16:27:22;-4.20;99.90
64012;DHT22;50211;52.768;12.124;2022-12-18T16:29:48;-4.30;99.90
64012;DHT22;50211;52.768;12.124;2022-12-18T16:32:19;-4.30;99.90
64012;DHT22;50211;52.768;12.124;2022-12-18T16:34:46;-4.40;99.90
64012;DHT22;50211;52.768;12.124;2022-12-18T16:37:13;-4.40;99.90
64012;DHT22;50211;52.768;12.124;2022-12-18T16:39:39;-4.50;99.90
64012;DHT22;50211;52.768;12.124;2022-12-18T16:42:12;-4.50;99.90
64012;DHT22;50211;52.768;12.124;2022-12-18T16:44:40;-4.50;99.90
64012;DHT22;50211;52.768;12.124;2022-12-18T16:47:05;-4.50;99.90
64012;DHT22;50211;52.768;12.124;2022-12-18T16:49:31;-4.60;99.90
64012;DHT22;50211;52.768;12.124;2022-12-18T16:51:56;-4.60;99.90
64012;DHT22;50211;52.768;12.124;2022-12-18T16:54:22;-4.60;99.90
64012;DHT22;50211;52.768;12.124;2022-12-18T16:56:47;-4.50;99.90
64012;DHT22;50211;52.768;12.124;2022-12-18T16:59:15;-4.60;99.90
64012;DHT22;50211;52.768;12.124;2022-12-18T17:01:41;-4.50;99.90
64012;DHT22;50211;52.768;12.124;2022-12-18T17:04:07;-4.60;99.90
64012;DHT22;50211;52.768;12.124;2022-12-18T17:06:35;-4.60;99.90
64012;DHT22;50211;52.768;12.124;2022-12-18T17:09:06;-4.60;99.90
64012;DHT22;50211;52.768;12.124;2022-12-18T17:11:34;-4.60;99.90
64012;DHT22;50211;52.768;12.124;2022-12-18T17:14:05;-4.60;99.90
64012;DHT22;50211;52.768;12.124;2022-12-18T17:16:31;-4.60;99.90
64012;DHT22;50211;52.768;12.124;2022-12-18T17:18:56;-4.50;99.90
64012;DHT22;50211;52.768;12.124;2022-12-18T17:21:22;-4.50;99.90
64012;DHT22;50211;52.768;12.124;2022-12-18T17:23:47;-4.50;99.90
64012;DHT22;50211;52.768;12.124;2022-12-18T17:26:13;-4.50;99.90